Terminal Aerodrome Forecast
Issued by NWS

Home | Current Version | Previous Version | Text Only | Print | Product List | Glossary On
Versions: 1 2 3 4 5 6 7 8 9 10 11 12 13 14 15 16 17 18 19 20 21 22 23 24 25 26
000
FTUS45 KREV 252300
TAFTRK
TAF
KTRK 252321Z 2600/2624 03012KT P6SM VCSH BKN040
     FM260300 VRB03KT P6SM SKC
     FM261000 00000KT P6SM BCFG SKC
     FM261900 02010KT P6SM SCT030
      AMD NOT SKED 2602/2612=

USA.gov is the U.S. government's official web portal to all federal, state and local government web resources and services.